createdAt,value
2022-12-09T00:01:45.946Z,5.23
2022-12-09T00:04:14.409Z,5.07
2022-12-09T00:06:42.839Z,3.07
2022-12-09T00:09:12.702Z,4.60
2022-12-09T00:11:41.131Z,6.50
2022-12-09T00:14:09.707Z,4.87
2022-12-09T00:16:38.215Z,3.40
2022-12-09T00:19:07.403Z,3.17
2022-12-09T00:21:35.892Z,4.07
2022-12-09T00:24:04.603Z,3.90
2022-12-09T00:26:34.480Z,2.80
2022-12-09T00:29:03.139Z,3.73
2022-12-09T00:31:32.553Z,5.03
2022-12-09T00:34:01.909Z,3.93
2022-12-09T00:36:30.358Z,3.43
2022-12-09T00:38:59.199Z,5.70
2022-12-09T00:41:27.827Z,4.50
2022-12-09T00:43:57.762Z,4.30
2022-12-09T00:46:26.247Z,3.17
2022-12-09T00:48:54.865Z,4.17
2022-12-09T00:51:23.700Z,5.07
2022-12-09T00:53:54.687Z,5.77
2022-12-09T00:56:23.412Z,4.43
2022-12-09T00:58:51.664Z,6.17
2022-12-09T01:01:21.392Z,5.83
2022-12-09T01:03:49.800Z,4.13
2022-12-09T01:06:18.804Z,4.17
2022-12-09T01:08:47.211Z,4.07
2022-12-09T01:11:17.340Z,3.07
2022-12-09T01:13:45.717Z,3.30
2022-12-09T01:16:17.764Z,5.33
2022-12-09T01:18:47.977Z,3.80
2022-12-09T01:21:16.362Z,4.47
2022-12-09T01:23:44.666Z,4.70
2022-12-09T01:26:12.942Z,2.70
2022-12-09T01:28:41.336Z,5.50
2022-12-09T01:31:10.064Z,4.17
2022-12-09T01:33:38.465Z,4.53
2022-12-09T01:36:09.068Z,4.87
2022-12-09T01:38:37.394Z,3.57
2022-12-09T01:41:06.054Z,6.00
2022-12-09T01:43:34.508Z,5.60
2022-12-09T01:46:03.259Z,2.57
2022-12-09T01:48:32.248Z,3.00
2022-12-09T01:51:02.329Z,2.80
2022-12-09T01:53:32.359Z,2.87
2022-12-09T01:56:01.473Z,5.60
2022-12-09T01:58:29.807Z,1.83
2022-12-09T02:00:58.098Z,2.83
2022-12-09T02:03:26.440Z,2.10
2022-12-09T02:05:55.188Z,3.47
2022-12-09T02:08:23.560Z,2.87
2022-12-09T02:10:56.073Z,3.20
2022-12-09T02:13:25.889Z,2.63
2022-12-09T02:15:54.540Z,2.07
2022-12-09T02:18:23.542Z,2.10
2022-12-09T02:20:53.680Z,3.17
2022-12-09T02:23:25.053Z,1.43
2022-12-09T02:25:57.102Z,2.53
2022-12-09T02:28:34.540Z,1.97
2022-12-09T02:31:06.045Z,2.97
2022-12-09T02:33:38.436Z,3.73
2022-12-09T02:36:09.388Z,1.87
2022-12-09T02:38:37.698Z,2.43
2022-12-09T02:41:07.610Z,3.03
2022-12-09T02:43:36.740Z,3.03
2022-12-09T02:46:05.410Z,2.10
2022-12-09T02:48:34.122Z,3.00
2022-12-09T02:51:03.011Z,2.20
2022-12-09T02:53:32.692Z,1.53
2022-12-09T02:56:01.120Z,2.50
2022-12-09T02:58:29.422Z,2.00
2022-12-09T03:00:58.257Z,2.23
2022-12-09T03:03:26.786Z,2.23
2022-12-09T03:05:58.266Z,1.43
2022-12-09T03:08:29.000Z,1.97
2022-12-09T03:10:59.866Z,1.80
2022-12-09T03:13:40.511Z,2.77
2022-12-09T03:16:09.949Z,3.63
2022-12-09T03:18:38.361Z,2.40
2022-12-09T03:21:06.758Z,2.23
2022-12-09T03:23:35.107Z,1.73
2022-12-09T03:26:04.764Z,1.70
2022-12-09T03:28:33.917Z,0.87
2022-12-09T03:31:03.276Z,1.70
2022-12-09T03:33:31.773Z,1.80
2022-12-09T03:36:01.310Z,1.57
2022-12-09T03:38:30.470Z,0.97
2022-12-09T03:40:59.580Z,1.87
2022-12-09T03:43:29.793Z,1.63
2022-12-09T03:45:58.274Z,2.33
2022-12-09T03:48:26.858Z,1.17
2022-12-09T03:50:56.163Z,0.93
2022-12-09T03:53:25.586Z,1.73
2022-12-09T03:55:55.048Z,1.70
2022-12-09T03:58:23.581Z,0.83
2022-12-09T04:00:53.490Z,1.27
2022-12-09T04:03:22.353Z,1.33
2022-12-09T04:05:50.706Z,2.10
2022-12-09T04:08:19.009Z,2.03
2022-12-09T04:10:47.603Z,1.40
2022-12-09T04:13:16.146Z,1.67
2022-12-09T04:15:44.439Z,1.40
2022-12-09T04:18:14.188Z,0.50
2022-12-09T04:20:42.829Z,1.13
2022-12-09T04:23:11.295Z,1.20
2022-12-09T04:25:39.585Z,1.80
2022-12-09T04:28:08.113Z,1.33
2022-12-09T04:30:36.676Z,1.70
2022-12-09T04:33:05.167Z,1.17
2022-12-09T04:35:34.890Z,1.63
2022-12-09T04:38:03.319Z,2.77
2022-12-09T04:40:31.874Z,1.90
2022-12-09T04:43:00.476Z,3.53
2022-12-09T04:45:29.249Z,0.83
2022-12-09T04:47:57.690Z,1.60
2022-12-09T04:50:26.018Z,1.37
2022-12-09T04:52:55.956Z,1.03
2022-12-09T04:55:24.442Z,0.90
2022-12-09T04:57:53.040Z,0.60
2022-12-09T05:00:22.155Z,1.17
2022-12-09T05:02:50.774Z,1.00
2022-12-09T05:05:19.338Z,1.83
2022-12-09T05:07:47.995Z,2.93
2022-12-09T05:10:18.190Z,3.53
2022-12-09T05:12:46.998Z,1.43
2022-12-09T05:15:15.642Z,2.50
2022-12-09T05:17:44.566Z,3.37
2022-12-09T05:20:14.498Z,3.77
2022-12-09T05:22:43.005Z,3.50
2022-12-09T05:25:11.599Z,2.77
2022-12-09T05:27:41.252Z,3.43
2022-12-09T05:30:10.272Z,3.57
2022-12-09T05:32:39.249Z,2.00
2022-12-09T05:35:08.045Z,3.00
2022-12-09T05:37:36.366Z,2.87
2022-12-09T05:40:05.330Z,3.17
2022-12-09T05:42:39.615Z,6.23
2022-12-09T05:45:12.064Z,4.20
2022-12-09T05:47:41.052Z,3.57
2022-12-09T05:50:10.031Z,2.60
2022-12-09T05:52:39.165Z,3.70
2022-12-09T05:55:08.026Z,5.27
2022-12-09T05:57:36.688Z,8.40
2022-12-09T06:00:06.499Z,3.80
2022-12-09T06:02:36.887Z,3.80
2022-12-09T06:05:06.069Z,3.83
2022-12-09T06:07:34.882Z,4.17
2022-12-09T06:10:04.057Z,3.37
2022-12-09T06:12:32.739Z,3.37
2022-12-09T06:15:01.412Z,4.03
2022-12-09T06:17:30.105Z,4.27
2022-12-09T06:19:59.875Z,2.73
2022-12-09T06:22:28.238Z,5.17
2022-12-09T06:25:06.984Z,4.67
2022-12-09T06:27:35.578Z,2.70
2022-12-09T06:30:04.057Z,2.73
2022-12-09T06:32:32.429Z,3.40
2022-12-09T06:35:03.004Z,5.80
2022-12-09T06:37:32.740Z,4.80
2022-12-09T06:40:01.522Z,4.37
2022-12-09T06:42:30.700Z,5.20
2022-12-09T06:44:59.429Z,4.20
2022-12-09T06:47:28.171Z,4.83
2022-12-09T06:50:02.715Z,5.20
2022-12-09T06:52:37.582Z,2.80
2022-12-09T06:55:06.426Z,3.07
2022-12-09T06:57:35.249Z,3.00
2022-12-09T07:00:04.175Z,4.13
2022-12-09T07:02:35.780Z,3.20
2022-12-09T07:05:06.142Z,2.87
2022-12-09T07:07:36.289Z,4.17
2022-12-09T07:10:04.989Z,2.63
2022-12-09T07:12:33.460Z,3.27
2022-12-09T07:15:01.997Z,3.97
2022-12-09T07:17:30.565Z,3.73
2022-12-09T07:20:04.914Z,2.50
2022-12-09T07:22:36.553Z,3.70
2022-12-09T07:25:05.952Z,3.27
2022-12-09T07:27:35.038Z,1.97
2022-12-09T07:30:03.571Z,3.17
2022-12-09T07:32:32.310Z,2.83
2022-12-09T07:35:01.343Z,3.53
2022-12-09T07:37:29.736Z,2.47
2022-12-09T07:39:59.605Z,2.67
2022-12-09T07:42:28.312Z,2.17
2022-12-09T07:44:57.130Z,3.27
2022-12-09T07:47:26.333Z,2.40
2022-12-09T07:49:54.712Z,2.73
2022-12-09T07:52:23.012Z,1.33
2022-12-09T07:54:51.716Z,2.83
2022-12-09T07:57:21.459Z,2.07
2022-12-09T07:59:49.936Z,2.07
2022-12-09T08:02:18.382Z,3.63
2022-12-09T08:04:46.939Z,2.90
2022-12-09T08:07:15.569Z,2.03
2022-12-09T08:09:44.362Z,1.87
2022-12-09T08:12:13.654Z,1.77
2022-12-09T08:14:43.940Z,1.67
2022-12-09T08:17:12.731Z,2.70
2022-12-09T08:19:41.216Z,2.57
2022-12-09T08:22:10.000Z,1.90
2022-12-09T08:24:38.527Z,3.57
2022-12-09T08:27:07.627Z,1.87
2022-12-09T08:29:36.594Z,2.57
2022-12-09T08:32:06.847Z,1.83
2022-12-09T08:34:35.643Z,1.87
2022-12-09T08:37:04.441Z,1.97
2022-12-09T08:39:33.070Z,2.00
2022-12-09T08:42:01.607Z,1.63
2022-12-09T08:44:30.476Z,2.07
2022-12-09T08:46:59.366Z,1.97
2022-12-09T08:49:29.903Z,2.53
2022-12-09T08:51:58.942Z,1.57
2022-12-09T08:54:27.460Z,1.90
2022-12-09T08:56:56.420Z,4.80
2022-12-09T08:59:25.411Z,1.43
2022-12-09T09:01:54.476Z,1.57
2022-12-09T09:04:23.511Z,3.30
2022-12-09T09:06:54.184Z,1.97
2022-12-09T09:09:23.460Z,2.70
2022-12-09T09:11:52.092Z,2.17
2022-12-09T09:14:21.001Z,1.63
2022-12-09T09:16:49.900Z,2.00
2022-12-09T09:19:18.762Z,2.50
2022-12-09T09:21:47.989Z,2.30
2022-12-09T09:24:19.007Z,0.60
2022-12-09T09:26:48.366Z,1.80
2022-12-09T09:29:17.565Z,1.10
2022-12-09T09:31:48.723Z,1.10
2022-12-09T09:34:17.955Z,2.37
2022-12-09T09:36:46.879Z,0.90
2022-12-09T09:39:15.325Z,1.37
2022-12-09T09:41:46.351Z,0.93
2022-12-09T09:44:18.438Z,0.97
2022-12-09T09:46:47.277Z,1.03
2022-12-09T09:49:17.287Z,1.07
2022-12-09T09:51:46.097Z,0.83
2022-12-09T09:54:14.754Z,0.83
2022-12-09T09:56:47.265Z,1.47
2022-12-09T09:59:19.560Z,3.07
2022-12-09T10:01:48.890Z,5.10
2022-12-09T10:04:19.561Z,2.23
2022-12-09T10:06:49.146Z,2.53
2022-12-09T10:09:19.781Z,0.57
2022-12-09T10:11:54.839Z,2.07
2022-12-09T10:14:25.596Z,0.67
2022-12-09T10:16:56.553Z,1.40
2022-12-09T10:19:28.275Z,0.73
2022-12-09T10:21:57.319Z,1.57
2022-12-09T10:24:26.327Z,1.17
2022-12-09T10:26:57.773Z,1.37
2022-12-09T10:29:29.747Z,1.20
2022-12-09T10:31:58.542Z,0.70
2022-12-09T10:34:27.475Z,1.20
2022-12-09T10:36:55.975Z,1.80
2022-12-09T10:39:24.872Z,1.33
2022-12-09T10:42:11.350Z,1.03
2022-12-09T10:44:41.307Z,1.17
2022-12-09T10:47:10.355Z,2.80
2022-12-09T10:49:38.739Z,1.50
2022-12-09T10:52:07.820Z,0.90
2022-12-09T10:54:37.199Z,1.87
2022-12-09T10:57:07.519Z,1.23
2022-12-09T10:59:36.762Z,1.03
2022-12-09T11:02:21.188Z,1.77
2022-12-09T11:04:50.213Z,1.00
2022-12-09T11:07:19.843Z,1.20
2022-12-09T11:09:49.131Z,1.47
2022-12-09T11:12:19.235Z,2.93
2022-12-09T11:14:51.753Z,1.03
2022-12-09T11:17:21.859Z,1.67
2022-12-09T11:19:53.288Z,1.97
2022-12-09T11:22:24.010Z,1.87
2022-12-09T11:24:53.869Z,0.83
2022-12-09T11:27:29.629Z,3.10
2022-12-09T11:30:11.357Z,0.87
2022-12-09T11:32:54.627Z,0.97
2022-12-09T11:35:23.943Z,2.10
2022-12-09T11:37:52.378Z,1.17
2022-12-09T11:40:21.005Z,0.60
2022-12-09T11:42:51.093Z,2.07
2022-12-09T11:45:20.015Z,0.97
2022-12-09T11:48:24.160Z,0.90
2022-12-09T11:50:42.526Z,1.67
2022-12-09T11:53:19.351Z,1.60
2022-12-09T11:55:48.017Z,4.10
2022-12-09T11:58:17.100Z,1.20
2022-12-09T12:00:45.804Z,1.23
2022-12-09T12:03:15.163Z,3.33
2022-12-09T12:05:45.289Z,1.73
2022-12-09T12:08:15.943Z,1.00
2022-12-09T12:10:45.403Z,1.27
2022-12-09T12:13:16.482Z,1.00
2022-12-09T12:15:46.703Z,1.10
2022-12-09T12:18:17.235Z,1.67
2022-12-09T12:20:51.027Z,2.20
2022-12-09T12:23:22.756Z,6.03
2022-12-09T12:25:53.140Z,3.37
2022-12-09T12:28:28.686Z,2.10
2022-12-09T12:30:57.706Z,1.17
2022-12-09T12:36:31.915Z,1.07
2022-12-09T12:39:05.111Z,1.83
2022-12-09T12:41:36.278Z,2.07
2022-12-09T12:44:25.236Z,2.27
2022-12-09T12:46:56.236Z,2.17
2022-12-09T12:49:42.564Z,1.50
2022-12-09T12:52:46.966Z,2.27
2022-12-09T12:55:06.197Z,1.50
2022-12-09T12:57:35.454Z,1.30
2022-12-09T13:00:07.644Z,2.07
2022-12-09T13:02:40.974Z,1.20
2022-12-09T13:05:14.101Z,3.57
2022-12-09T13:07:46.123Z,1.80
2022-12-09T13:10:16.952Z,1.40
2022-12-09T13:12:58.510Z,1.13
2022-12-09T13:15:33.799Z,2.53
2022-12-09T13:18:09.369Z,2.73
2022-12-09T13:20:41.774Z,2.37
2022-12-09T13:23:14.490Z,1.43
2022-12-09T13:25:43.742Z,1.70
2022-12-09T13:28:12.949Z,1.27
2022-12-09T13:30:42.022Z,1.10
2022-12-09T13:33:28.664Z,1.10
2022-12-09T13:35:57.781Z,1.60
2022-12-09T13:38:28.327Z,0.90
2022-12-09T13:40:56.586Z,1.10
2022-12-09T13:43:26.028Z,1.43
2022-12-09T13:45:55.855Z,1.10
2022-12-09T13:48:44.530Z,2.17
2022-12-09T13:51:12.982Z,0.73
2022-12-09T13:53:45.986Z,1.73
2022-12-09T13:56:25.446Z,1.37
2022-12-09T13:59:05.777Z,1.77
2022-12-09T14:01:35.053Z,1.93
2022-12-09T14:04:05.415Z,0.97
2022-12-09T14:06:34.598Z,1.30
2022-12-09T14:09:05.874Z,1.33
2022-12-09T14:11:49.902Z,1.70
2022-12-09T14:14:33.056Z,2.00
2022-12-09T14:17:01.565Z,2.60
2022-12-09T14:19:46.426Z,2.93
2022-12-09T14:22:33.716Z,1.90
2022-12-09T14:25:16.884Z,1.47
2022-12-09T14:27:49.530Z,2.50
2022-12-09T14:30:38.875Z,1.40
2022-12-09T14:33:21.185Z,0.93
2022-12-09T14:35:49.919Z,3.67
2022-12-09T14:38:19.654Z,1.50
2022-12-09T14:40:51.411Z,1.70
2022-12-09T14:43:35.196Z,1.13
2022-12-09T14:46:04.217Z,1.77
2022-12-09T14:48:33.264Z,1.30
2022-12-09T14:51:08.675Z,2.97
2022-12-09T14:53:37.439Z,2.63
2022-12-09T14:56:06.271Z,2.97
2022-12-09T14:58:36.046Z,3.80
2022-12-09T15:01:04.706Z,1.23
2022-12-09T15:03:36.769Z,1.83
2022-12-09T15:06:13.766Z,0.77
2022-12-09T15:08:42.692Z,0.90
2022-12-09T15:11:11.727Z,1.63
2022-12-09T15:13:42.854Z,1.07
2022-12-09T15:16:11.375Z,1.60
2022-12-09T15:18:39.870Z,1.10
2022-12-09T15:21:08.523Z,1.53
2022-12-09T15:23:37.195Z,1.10
2022-12-09T15:26:06.620Z,1.57
2022-12-09T15:28:35.797Z,1.80
2022-12-09T15:31:06.439Z,2.13
2022-12-09T15:33:40.496Z,0.90
2022-12-09T15:36:09.676Z,1.43
2022-12-09T15:38:41.020Z,1.50
2022-12-09T15:41:27.583Z,1.87
2022-12-09T15:43:56.417Z,1.20
2022-12-09T15:46:26.098Z,1.27
2022-12-09T15:48:55.306Z,1.43
2022-12-09T15:51:26.243Z,2.53
2022-12-09T15:53:55.386Z,1.37
2022-12-09T15:56:25.426Z,1.43
2022-12-09T15:58:54.345Z,1.20
2022-12-09T16:01:23.707Z,2.30
2022-12-09T16:03:53.431Z,1.53
2022-12-09T16:06:25.515Z,1.57
2022-12-09T16:08:53.742Z,1.47
2022-12-09T16:11:38.251Z,1.80
2022-12-09T16:14:06.534Z,1.00
2022-12-09T16:16:35.935Z,1.17
2022-12-09T16:19:05.772Z,1.43
2022-12-09T16:21:34.078Z,1.63
2022-12-09T16:24:06.938Z,1.37
2022-12-09T16:26:36.359Z,1.10
2022-12-09T16:29:06.439Z,2.07
2022-12-09T16:31:34.958Z,2.27
2022-12-09T16:34:03.329Z,1.57
2022-12-09T16:36:33.176Z,2.70
2022-12-09T16:39:14.588Z,0.73
2022-12-09T16:41:56.138Z,1.70
2022-12-09T16:44:25.316Z,2.27
2022-12-09T16:46:53.665Z,1.40
2022-12-09T16:49:21.938Z,2.30
2022-12-09T16:51:51.741Z,1.07
2022-12-09T16:54:21.282Z,1.83
2022-12-09T16:56:51.529Z,2.47
2022-12-09T16:59:19.818Z,1.10
2022-12-09T17:01:48.131Z,1.07
2022-12-09T17:04:17.044Z,1.50
2022-12-09T17:06:45.317Z,1.00
2022-12-09T17:09:14.998Z,1.80
2022-12-09T17:11:48.579Z,1.77
2022-12-09T17:14:17.403Z,2.53
2022-12-09T17:16:45.743Z,1.77
2022-12-09T17:19:14.109Z,1.40
2022-12-09T17:21:42.402Z,1.73
2022-12-09T17:24:12.475Z,1.87
2022-12-09T17:26:42.110Z,1.40
2022-12-09T17:29:10.434Z,1.37
2022-12-09T17:31:38.833Z,1.37
2022-12-09T17:34:07.095Z,2.33
2022-12-09T17:36:35.347Z,1.13
2022-12-09T17:39:03.783Z,2.77
2022-12-09T17:41:32.051Z,1.93
2022-12-09T17:44:02.778Z,0.90
2022-12-09T17:46:31.412Z,1.20
2022-12-09T17:49:00.976Z,2.03
2022-12-09T17:51:34.041Z,1.07
2022-12-09T17:54:04.685Z,2.57
2022-12-09T17:56:32.974Z,1.53
2022-12-09T17:59:04.164Z,1.63
2022-12-09T18:01:34.049Z,1.37
2022-12-09T18:04:07.902Z,1.17
2022-12-09T18:06:36.754Z,1.33
2022-12-09T18:09:05.107Z,1.07
2022-12-09T18:11:33.414Z,1.80
2022-12-09T18:14:03.398Z,1.53
2022-12-09T18:16:31.730Z,1.20
2022-12-09T18:19:03.455Z,2.53
2022-12-09T18:21:31.754Z,2.10
2022-12-09T18:24:00.050Z,2.13
2022-12-09T18:26:32.028Z,2.13
2022-12-09T18:29:03.790Z,1.67
2022-12-09T18:31:32.091Z,1.40
2022-12-09T18:34:00.408Z,2.10
2022-12-09T18:36:29.125Z,1.27
2022-12-09T18:38:58.125Z,1.33
2022-12-09T18:41:26.800Z,1.63
2022-12-09T18:43:55.505Z,2.17
2022-12-09T18:46:26.257Z,1.23
2022-12-09T18:48:58.725Z,3.30
2022-12-09T18:51:27.194Z,1.70
2022-12-09T18:53:55.465Z,2.30
2022-12-09T18:56:23.796Z,5.47
2022-12-09T18:59:09.090Z,2.03
2022-12-09T19:01:40.476Z,5.37
2022-12-09T19:04:09.785Z,9.43
2022-12-09T19:06:38.653Z,5.27
2022-12-09T19:09:07.735Z,6.37
2022-12-09T19:11:36.985Z,5.77
2022-12-09T19:14:05.334Z,5.00
2022-12-09T19:16:34.017Z,9.80
2022-12-09T19:19:09.109Z,9.20
2022-12-09T19:21:38.448Z,4.83
2022-12-09T19:24:07.144Z,8.60
2022-12-09T19:26:36.436Z,8.77
2022-12-09T19:29:05.678Z,4.13
2022-12-09T19:31:36.017Z,4.80
2022-12-09T19:34:06.585Z,5.57
2022-12-09T19:36:35.028Z,6.63
2022-12-09T19:39:03.336Z,5.87
2022-12-09T19:41:32.124Z,5.13
2022-12-09T19:44:00.980Z,7.30
2022-12-09T19:46:29.373Z,8.63
2022-12-09T19:48:57.832Z,7.90
2022-12-09T19:51:27.655Z,10.67
2022-12-09T19:53:56.180Z,10.00
2022-12-09T19:56:24.510Z,9.33
2022-12-09T19:58:52.958Z,10.93
2022-12-09T20:01:22.436Z,6.43
2022-12-09T20:03:51.239Z,6.87
2022-12-09T20:06:20.585Z,11.50
2022-12-09T20:08:50.423Z,6.47
2022-12-09T20:11:19.263Z,6.33
2022-12-09T20:13:47.567Z,5.97
2022-12-09T20:16:16.794Z,9.53
2022-12-09T20:18:45.382Z,7.03
2022-12-09T20:21:13.849Z,5.57
2022-12-09T20:23:42.622Z,5.10
2022-12-09T20:26:12.912Z,8.00
2022-12-09T20:28:41.721Z,7.93
2022-12-09T20:31:10.783Z,11.83
2022-12-09T20:33:39.164Z,7.73
2022-12-09T20:36:08.482Z,8.27
2022-12-09T20:38:36.821Z,7.40
2022-12-09T20:41:05.864Z,6.77
2022-12-09T20:43:39.496Z,6.37
2022-12-09T20:46:08.652Z,6.40
2022-12-09T20:48:37.113Z,8.63
2022-12-09T20:51:06.922Z,5.50
2022-12-09T20:53:35.193Z,7.07
2022-12-09T20:56:03.596Z,10.40
2022-12-09T20:58:32.168Z,11.43
2022-12-09T21:01:07.340Z,6.07
2022-12-09T21:03:35.946Z,5.93
2022-12-09T21:06:04.273Z,9.27
2022-12-09T21:08:32.635Z,7.50
2022-12-09T21:11:05.364Z,5.83
2022-12-09T21:13:33.694Z,10.23
2022-12-09T21:16:13.392Z,7.70
2022-12-09T21:18:41.749Z,5.83
2022-12-09T21:21:10.069Z,6.40
2022-12-09T21:23:38.530Z,6.17
2022-12-09T21:26:07.283Z,8.33
2022-12-09T21:28:35.582Z,7.97
2022-12-09T21:31:08.309Z,7.17
2022-12-09T21:33:38.122Z,9.67
2022-12-09T21:36:07.272Z,6.73
2022-12-09T21:38:35.737Z,7.70
2022-12-09T21:41:04.899Z,6.17
2022-12-09T21:43:33.399Z,5.33
2022-12-09T21:46:03.399Z,7.10
2022-12-09T21:48:31.780Z,7.17
2022-12-09T21:51:01.962Z,6.13
2022-12-09T21:53:30.320Z,4.77
2022-12-09T21:56:02.528Z,9.83
2022-12-09T21:58:31.808Z,7.23
2022-12-09T22:01:00.889Z,9.20
2022-12-09T22:03:29.300Z,7.83
2022-12-09T22:05:58.547Z,8.63
2022-12-09T22:08:28.242Z,5.73
2022-12-09T22:10:58.465Z,6.73
2022-12-09T22:13:26.723Z,5.77
2022-12-09T22:15:55.020Z,7.97
2022-12-09T22:18:23.474Z,8.97
2022-12-09T22:21:23.560Z,6.83
2022-12-09T22:23:41.425Z,6.40
2022-12-09T22:26:09.974Z,7.07
2022-12-09T22:28:38.296Z,6.60
2022-12-09T22:31:09.919Z,5.90
2022-12-09T22:33:38.246Z,7.23
2022-12-09T22:36:06.832Z,6.40
2022-12-09T22:38:35.315Z,4.90
2022-12-09T22:41:07.965Z,7.63
2022-12-09T22:43:38.232Z,7.00
2022-12-09T22:46:07.093Z,6.03
2022-12-09T22:48:35.442Z,7.07
2022-12-09T22:51:04.538Z,5.90
2022-12-09T22:53:32.882Z,4.17
2022-12-09T22:56:01.325Z,6.57
2022-12-09T22:58:31.155Z,6.00
2022-12-09T23:00:59.523Z,4.40
2022-12-09T23:03:27.994Z,7.53
2022-12-09T23:05:56.322Z,5.10
2022-12-09T23:08:24.647Z,3.87
2022-12-09T23:10:52.924Z,4.13
2022-12-09T23:13:21.325Z,8.43
2022-12-09T23:15:51.006Z,4.70
2022-12-09T23:18:19.324Z,4.60
2022-12-09T23:20:47.943Z,4.87
2022-12-09T23:23:16.178Z,5.07
2022-12-09T23:25:44.488Z,5.63
2022-12-09T23:28:12.922Z,3.00
2022-12-09T23:30:41.339Z,3.33
2022-12-09T23:33:11.326Z,4.43
2022-12-09T23:35:39.780Z,4.77
2022-12-09T23:38:08.139Z,4.50
2022-12-09T23:40:36.382Z,5.53
2022-12-09T23:43:04.951Z,4.03
2022-12-09T23:45:33.310Z,5.80
2022-12-09T23:48:01.610Z,7.83
2022-12-09T23:50:31.393Z,5.87
2022-12-09T23:52:59.674Z,9.23
2022-12-09T23:55:27.955Z,9.73
2022-12-09T23:57:56.357Z,9.57
